sensor_id;sensor_type;location;lat;lon;timestamp;temperature;humidity
46976;DHT22;32724;51.094;6.996;2022-12-08T00:00:26;3.70;99.90
46976;DHT22;32724;51.094;6.996;2022-12-08T00:02:51;3.70;99.90
46976;DHT22;32724;51.094;6.996;2022-12-08T00:05:16;3.70;99.90
46976;DHT22;32724;51.094;6.996;2022-12-08T00:08:14;3.70;99.90
46976;DHT22;32724;51.094;6.996;2022-12-08T00:10:58;3.60;99.90
46976;DHT22;32724;51.094;6.996;2022-12-08T00:13:24;3.60;99.90
46976;DHT22;32724;51.094;6.996;2022-12-08T00:15:49;3.60;99.90
46976;DHT22;32724;51.094;6.996;2022-12-08T00:18:15;3.50;99.90
46976;DHT22;32724;51.094;6.996;2022-12-08T00:20:40;3.60;99.90
46976;DHT22;32724;51.094;6.996;2022-12-08T00:23:05;3.60;99.90
46976;DHT22;32724;51.094;6.996;2022-12-08T00:25:34;3.60;99.90
46976;DHT22;32724;51.094;6.996;2022-12-08T00:27:59;3.60;99.90
46976;DHT22;32724;51.094;6.996;2022-12-08T00:30:25;3.70;99.90
46976;DHT22;32724;51.094;6.996;2022-12-08T00:32:50;3.70;99.90
46976;DHT22;32724;51.094;6.996;2022-12-08T00:35:16;3.80;99.90
46976;DHT22;32724;51.094;6.996;2022-12-08T00:37:41;3.80;99.90
46976;DHT22;32724;51.094;6.996;2022-12-08T00:40:07;3.90;99.90
46976;DHT22;32724;51.094;6.996;2022-12-08T00:42:32;4.00;99.90
46976;DHT22;32724;51.094;6.996;2022-12-08T00:44:58;4.00;99.90
46976;DHT22;32724;51.094;6.996;2022-12-08T00:47:23;4.00;99.90
46976;DHT22;32724;51.094;6.996;2022-12-08T00:49:49;4.10;99.90
46976;DHT22;32724;51.094;6.996;2022-12-08T00:52:14;3.80;99.90
46976;DHT22;32724;51.094;6.996;2022-12-08T00:54:40;3.50;99.90
46976;DHT22;32724;51.094;6.996;2022-12-08T00:57:05;3.70;99.90
46976;DHT22;32724;51.094;6.996;2022-12-08T00:59:31;4.20;99.90
46976;DHT22;32724;51.094;6.996;2022-12-08T01:01:56;3.80;99.90
46976;DHT22;32724;51.094;6.996;2022-12-08T01:04:21;3.70;99.90
46976;DHT22;32724;51.094;6.996;2022-12-08T01:06:47;3.70;99.90
46976;DHT22;32724;51.094;6.996;2022-12-08T01:09:13;3.70;99.90
46976;DHT22;32724;51.094;6.996;2022-12-08T01:11:39;3.70;99.90
46976;DHT22;32724;51.094;6.996;2022-12-08T01:14:04;3.80;99.90
46976;DHT22;32724;51.094;6.996;2022-12-08T01:16:31;3.80;99.90
46976;DHT22;32724;51.094;6.996;2022-12-08T01:18:57;3.70;99.90
46976;DHT22;32724;51.094;6.996;2022-12-08T01:21:23;3.70;99.90
46976;DHT22;32724;51.094;6.996;2022-12-08T01:23:49;3.70;99.90
46976;DHT22;32724;51.094;6.996;2022-12-08T01:26:15;3.70;99.90
46976;DHT22;32724;51.094;6.996;2022-12-08T01:28:41;3.70;99.90
46976;DHT22;32724;51.094;6.996;2022-12-08T01:31:25;3.70;99.90
46976;DHT22;32724;51.094;6.996;2022-12-08T01:33:51;3.70;99.90
46976;DHT22;32724;51.094;6.996;2022-12-08T01:36:21;3.80;99.90
46976;DHT22;32724;51.094;6.996;2022-12-08T01:38:47;3.80;99.90
46976;DHT22;32724;51.094;6.996;2022-12-08T01:41:14;3.80;99.90
46976;DHT22;32724;51.094;6.996;2022-12-08T01:46:11;3.70;99.90
46976;DHT22;32724;51.094;6.996;2022-12-08T01:48:36;3.60;99.90
46976;DHT22;32724;51.094;6.996;2022-12-08T01:51:02;3.70;99.90
46976;DHT22;32724;51.094;6.996;2022-12-08T01:53:29;3.80;99.90
46976;DHT22;32724;51.094;6.996;2022-12-08T01:56:09;3.90;99.90
46976;DHT22;32724;51.094;6.996;2022-12-08T01:58:39;4.00;99.90
46976;DHT22;32724;51.094;6.996;2022-12-08T02:01:05;4.00;99.90
46976;DHT22;32724;51.094;6.996;2022-12-08T02:03:47;4.00;99.90
46976;DHT22;32724;51.094;6.996;2022-12-08T02:06:13;4.10;99.90
46976;DHT22;32724;51.094;6.996;2022-12-08T02:08:39;4.10;99.90
46976;DHT22;32724;51.094;6.996;2022-12-08T02:11:09;4.10;99.90
46976;DHT22;32724;51.094;6.996;2022-12-08T02:13:35;4.20;99.90
46976;DHT22;32724;51.094;6.996;2022-12-08T02:26:51;3.80;99.90
46976;DHT22;32724;51.094;6.996;2022-12-08T02:37:34;3.90;99.90
46976;DHT22;32724;51.094;6.996;2022-12-08T02:42:41;3.90;99.90
46976;DHT22;32724;51.094;6.996;2022-12-08T02:47:42;3.90;99.90
46976;DHT22;32724;51.094;6.996;2022-12-08T02:50:08;3.80;99.90
46976;DHT22;32724;51.094;6.996;2022-12-08T02:52:38;3.90;99.90
46976;DHT22;32724;51.094;6.996;2022-12-08T02:55:05;3.80;99.90
46976;DHT22;32724;51.094;6.996;2022-12-08T03:00:08;4.00;99.90
46976;DHT22;32724;51.094;6.996;2022-12-08T03:09:59;4.20;99.90
46976;DHT22;32724;51.094;6.996;2022-12-08T03:12:31;4.20;99.90
46976;DHT22;32724;51.094;6.996;2022-12-08T03:15:00;4.20;99.90
46976;DHT22;32724;51.094;6.996;2022-12-08T03:17:27;4.20;99.90
46976;DHT22;32724;51.094;6.996;2022-12-08T03:19:53;3.90;99.90
46976;DHT22;32724;51.094;6.996;2022-12-08T03:22:20;3.90;99.90
46976;DHT22;32724;51.094;6.996;2022-12-08T03:24:46;3.90;99.90
46976;DHT22;32724;51.094;6.996;2022-12-08T03:27:16;3.90;99.90
46976;DHT22;32724;51.094;6.996;2022-12-08T03:29:44;3.90;99.90
46976;DHT22;32724;51.094;6.996;2022-12-08T03:34:35;3.90;99.90
46976;DHT22;32724;51.094;6.996;2022-12-08T03:37:02;3.90;99.90
46976;DHT22;32724;51.094;6.996;2022-12-08T03:39:28;3.80;99.90
46976;DHT22;32724;51.094;6.996;2022-12-08T03:41:53;3.80;99.90
46976;DHT22;32724;51.094;6.996;2022-12-08T03:44:19;3.80;99.90
46976;DHT22;32724;51.094;6.996;2022-12-08T03:46:44;3.80;99.90
46976;DHT22;32724;51.094;6.996;2022-12-08T03:49:10;3.80;99.90
46976;DHT22;32724;51.094;6.996;2022-12-08T03:51:35;3.90;99.90
46976;DHT22;32724;51.094;6.996;2022-12-08T03:54:01;3.90;99.90
46976;DHT22;32724;51.094;6.996;2022-12-08T03:56:31;3.90;99.90
46976;DHT22;32724;51.094;6.996;2022-12-08T03:58:56;4.00;99.90
46976;DHT22;32724;51.094;6.996;2022-12-08T04:01:22;4.00;99.90
46976;DHT22;32724;51.094;6.996;2022-12-08T04:03:48;4.10;99.90
46976;DHT22;32724;51.094;6.996;2022-12-08T04:06:13;4.10;99.90
46976;DHT22;32724;51.094;6.996;2022-12-08T04:08:39;4.10;99.90
46976;DHT22;32724;51.094;6.996;2022-12-08T04:11:04;4.10;99.90
46976;DHT22;32724;51.094;6.996;2022-12-08T04:13:37;4.20;99.90
46976;DHT22;32724;51.094;6.996;2022-12-08T04:16:02;3.80;99.90
46976;DHT22;32724;51.094;6.996;2022-12-08T04:18:28;3.80;99.90
46976;DHT22;32724;51.094;6.996;2022-12-08T04:20:53;3.90;99.90
46976;DHT22;32724;51.094;6.996;2022-12-08T04:23:19;3.90;99.90
46976;DHT22;32724;51.094;6.996;2022-12-08T04:25:44;3.90;99.90
46976;DHT22;32724;51.094;6.996;2022-12-08T04:28:10;3.90;99.90
46976;DHT22;32724;51.094;6.996;2022-12-08T04:30:37;3.90;99.90
46976;DHT22;32724;51.094;6.996;2022-12-08T04:33:02;3.90;99.90
46976;DHT22;32724;51.094;6.996;2022-12-08T04:35:28;3.90;99.90
46976;DHT22;32724;51.094;6.996;2022-12-08T04:37:53;3.90;99.90
46976;DHT22;32724;51.094;6.996;2022-12-08T04:40:19;3.90;99.90
46976;DHT22;32724;51.094;6.996;2022-12-08T04:42:45;3.90;99.90
46976;DHT22;32724;51.094;6.996;2022-12-08T04:45:10;3.90;99.90
46976;DHT22;32724;51.094;6.996;2022-12-08T04:47:36;3.90;99.90
46976;DHT22;32724;51.094;6.996;2022-12-08T04:50:02;3.90;99.90
46976;DHT22;32724;51.094;6.996;2022-12-08T04:52:28;4.00;99.90
46976;DHT22;32724;51.094;6.996;2022-12-08T04:54:53;4.00;99.90
46976;DHT22;32724;51.094;6.996;2022-12-08T04:57:18;4.00;99.90
46976;DHT22;32724;51.094;6.996;2022-12-08T04:59:44;4.00;99.90
46976;DHT22;32724;51.094;6.996;2022-12-08T05:02:09;4.10;99.90
46976;DHT22;32724;51.094;6.996;2022-12-08T05:04:35;4.10;99.90
46976;DHT22;32724;51.094;6.996;2022-12-08T05:07:00;4.10;99.90
46976;DHT22;32724;51.094;6.996;2022-12-08T05:09:26;4.10;99.90
46976;DHT22;32724;51.094;6.996;2022-12-08T05:11:52;4.10;99.90
46976;DHT22;32724;51.094;6.996;2022-12-08T05:14:17;4.10;99.90
46976;DHT22;32724;51.094;6.996;2022-12-08T05:16:44;4.10;99.90
46976;DHT22;32724;51.094;6.996;2022-12-08T05:19:10;4.10;99.90
46976;DHT22;32724;51.094;6.996;2022-12-08T05:21:35;3.90;99.90
46976;DHT22;32724;51.094;6.996;2022-12-08T05:24:01;3.90;99.90
46976;DHT22;32724;51.094;6.996;2022-12-08T05:26:26;3.90;99.90
46976;DHT22;32724;51.094;6.996;2022-12-08T05:28:52;3.90;99.90
46976;DHT22;32724;51.094;6.996;2022-12-08T05:31:17;4.00;99.90
46976;DHT22;32724;51.094;6.996;2022-12-08T05:33:43;4.10;99.90
46976;DHT22;32724;51.094;6.996;2022-12-08T05:36:10;4.00;99.90
46976;DHT22;32724;51.094;6.996;2022-12-08T05:38:36;3.90;99.90
46976;DHT22;32724;51.094;6.996;2022-12-08T05:41:01;3.90;99.90
46976;DHT22;32724;51.094;6.996;2022-12-08T05:43:27;3.90;99.90
46976;DHT22;32724;51.094;6.996;2022-12-08T05:45:53;3.90;99.90
46976;DHT22;32724;51.094;6.996;2022-12-08T05:48:18;3.90;99.90
46976;DHT22;32724;51.094;6.996;2022-12-08T05:50:45;3.80;99.90
46976;DHT22;32724;51.094;6.996;2022-12-08T05:53:10;3.60;99.90
46976;DHT22;32724;51.094;6.996;2022-12-08T05:55:36;3.50;99.90
46976;DHT22;32724;51.094;6.996;2022-12-08T05:58:01;3.30;99.90
46976;DHT22;32724;51.094;6.996;2022-12-08T06:00:27;3.40;99.90
46976;DHT22;32724;51.094;6.996;2022-12-08T06:02:52;3.50;99.90
46976;DHT22;32724;51.094;6.996;2022-12-08T06:05:18;3.60;99.90
46976;DHT22;32724;51.094;6.996;2022-12-08T06:07:43;3.60;99.90
46976;DHT22;32724;51.094;6.996;2022-12-08T06:10:09;3.70;99.90
46976;DHT22;32724;51.094;6.996;2022-12-08T06:12:34;3.80;99.90
46976;DHT22;32724;51.094;6.996;2022-12-08T06:14:59;3.90;99.90
46976;DHT22;32724;51.094;6.996;2022-12-08T06:17:25;4.00;99.90
46976;DHT22;32724;51.094;6.996;2022-12-08T06:19:50;3.90;99.90
46976;DHT22;32724;51.094;6.996;2022-12-08T06:22:16;3.90;99.90
46976;DHT22;32724;51.094;6.996;2022-12-08T06:24:41;4.00;99.90
46976;DHT22;32724;51.094;6.996;2022-12-08T06:27:07;4.00;99.90
46976;DHT22;32724;51.094;6.996;2022-12-08T06:29:32;4.00;99.90
46976;DHT22;32724;51.094;6.996;2022-12-08T06:31:58;4.00;99.90
46976;DHT22;32724;51.094;6.996;2022-12-08T06:34:23;4.00;99.90
46976;DHT22;32724;51.094;6.996;2022-12-08T06:36:48;4.10;99.90
46976;DHT22;32724;51.094;6.996;2022-12-08T06:39:14;4.00;99.90
46976;DHT22;32724;51.094;6.996;2022-12-08T06:41:39;4.00;99.90
46976;DHT22;32724;51.094;6.996;2022-12-08T06:44:24;4.00;99.90
46976;DHT22;32724;51.094;6.996;2022-12-08T06:46:49;3.90;99.90
46976;DHT22;32724;51.094;6.996;2022-12-08T06:49:15;4.00;99.90
46976;DHT22;32724;51.094;6.996;2022-12-08T06:51:40;3.90;99.90
46976;DHT22;32724;51.094;6.996;2022-12-08T06:54:05;3.70;99.90
46976;DHT22;32724;51.094;6.996;2022-12-08T06:56:31;3.80;99.90
46976;DHT22;32724;51.094;6.996;2022-12-08T06:58:56;3.80;99.90
46976;DHT22;32724;51.094;6.996;2022-12-08T07:01:22;3.80;99.90
46976;DHT22;32724;51.094;6.996;2022-12-08T07:03:47;3.80;99.90
46976;DHT22;32724;51.094;6.996;2022-12-08T07:06:20;3.70;99.90
46976;DHT22;32724;51.094;6.996;2022-12-08T07:08:46;3.70;99.90
46976;DHT22;32724;51.094;6.996;2022-12-08T07:11:11;3.70;99.90
46976;DHT22;32724;51.094;6.996;2022-12-08T07:13:37;3.70;99.90
46976;DHT22;32724;51.094;6.996;2022-12-08T07:16:03;3.70;99.90
46976;DHT22;32724;51.094;6.996;2022-12-08T07:18:29;3.70;99.90
46976;DHT22;32724;51.094;6.996;2022-12-08T07:20:54;3.70;99.90
46976;DHT22;32724;51.094;6.996;2022-12-08T07:23:20;3.80;99.90
46976;DHT22;32724;51.094;6.996;2022-12-08T07:25:45;3.80;99.90
46976;DHT22;32724;51.094;6.996;2022-12-08T07:28:11;3.70;99.90
46976;DHT22;32724;51.094;6.996;2022-12-08T07:30:37;3.70;99.90
46976;DHT22;32724;51.094;6.996;2022-12-08T07:33:02;3.80;99.90
46976;DHT22;32724;51.094;6.996;2022-12-08T07:35:29;3.90;99.90
46976;DHT22;32724;51.094;6.996;2022-12-08T07:37:55;3.90;99.90
46976;DHT22;32724;51.094;6.996;2022-12-08T07:40:21;4.00;99.90
46976;DHT22;32724;51.094;6.996;2022-12-08T07:42:47;3.90;99.90
46976;DHT22;32724;51.094;6.996;2022-12-08T07:45:12;3.90;99.90
46976;DHT22;32724;51.094;6.996;2022-12-08T07:47:38;3.90;99.90
46976;DHT22;32724;51.094;6.996;2022-12-08T07:50:04;4.00;99.90
46976;DHT22;32724;51.094;6.996;2022-12-08T07:52:29;3.90;99.90
46976;DHT22;32724;51.094;6.996;2022-12-08T07:54:55;4.00;99.90
46976;DHT22;32724;51.094;6.996;2022-12-08T07:57:20;3.80;99.90
46976;DHT22;32724;51.094;6.996;2022-12-08T07:59:46;3.70;99.90
46976;DHT22;32724;51.094;6.996;2022-12-08T08:02:15;3.70;99.90
46976;DHT22;32724;51.094;6.996;2022-12-08T08:04:41;3.70;99.90
46976;DHT22;32724;51.094;6.996;2022-12-08T08:07:07;3.70;99.90
46976;DHT22;32724;51.094;6.996;2022-12-08T08:09:32;3.60;99.90
46976;DHT22;32724;51.094;6.996;2022-12-08T08:11:58;3.60;99.90
46976;DHT22;32724;51.094;6.996;2022-12-08T08:14:23;3.60;99.90
46976;DHT22;32724;51.094;6.996;2022-12-08T08:16:49;3.60;99.90
46976;DHT22;32724;51.094;6.996;2022-12-08T08:19:14;3.60;99.90
46976;DHT22;32724;51.094;6.996;2022-12-08T08:21:40;3.60;99.90
46976;DHT22;32724;51.094;6.996;2022-12-08T08:24:05;3.60;99.90
46976;DHT22;32724;51.094;6.996;2022-12-08T08:26:31;3.60;99.90
46976;DHT22;32724;51.094;6.996;2022-12-08T08:28:56;3.60;99.90
46976;DHT22;32724;51.094;6.996;2022-12-08T08:31:25;3.60;99.90
46976;DHT22;32724;51.094;6.996;2022-12-08T08:33:51;3.60;99.90
46976;DHT22;32724;51.094;6.996;2022-12-08T08:36:17;3.50;99.90
46976;DHT22;32724;51.094;6.996;2022-12-08T08:38:42;3.60;99.90
46976;DHT22;32724;51.094;6.996;2022-12-08T08:41:11;3.60;99.90
46976;DHT22;32724;51.094;6.996;2022-12-08T08:43:37;3.70;99.90
46976;DHT22;32724;51.094;6.996;2022-12-08T08:46:03;3.70;99.90
46976;DHT22;32724;51.094;6.996;2022-12-08T08:48:29;3.70;99.90
46976;DHT22;32724;51.094;6.996;2022-12-08T08:50:55;3.70;99.90
46976;DHT22;32724;51.094;6.996;2022-12-08T08:53:21;3.80;99.90
46976;DHT22;32724;51.094;6.996;2022-12-08T08:55:46;3.80;99.90
46976;DHT22;32724;51.094;6.996;2022-12-08T08:58:12;3.80;99.90
46976;DHT22;32724;51.094;6.996;2022-12-08T09:00:37;3.60;99.90
46976;DHT22;32724;51.094;6.996;2022-12-08T09:03:03;3.60;99.90
46976;DHT22;32724;51.094;6.996;2022-12-08T09:05:29;3.60;99.90
46976;DHT22;32724;51.094;6.996;2022-12-08T09:07:54;3.60;99.90
46976;DHT22;32724;51.094;6.996;2022-12-08T09:10:20;3.60;99.90
46976;DHT22;32724;51.094;6.996;2022-12-08T09:12:45;3.60;99.90
46976;DHT22;32724;51.094;6.996;2022-12-08T09:15:11;3.60;99.90
46976;DHT22;32724;51.094;6.996;2022-12-08T09:17:36;3.60;99.90
46976;DHT22;32724;51.094;6.996;2022-12-08T09:20:03;3.60;99.90
46976;DHT22;32724;51.094;6.996;2022-12-08T09:22:28;3.70;99.90
46976;DHT22;32724;51.094;6.996;2022-12-08T09:24:54;3.60;99.90
46976;DHT22;32724;51.094;6.996;2022-12-08T09:27:19;3.70;99.90
46976;DHT22;32724;51.094;6.996;2022-12-08T09:29:45;3.70;99.90
46976;DHT22;32724;51.094;6.996;2022-12-08T09:32:10;3.70;99.90
46976;DHT22;32724;51.094;6.996;2022-12-08T09:34:36;3.70;99.90
46976;DHT22;32724;51.094;6.996;2022-12-08T09:37:01;3.60;99.90
46976;DHT22;32724;51.094;6.996;2022-12-08T09:39:27;3.70;99.90
46976;DHT22;32724;51.094;6.996;2022-12-08T09:41:56;3.70;99.90
46976;DHT22;32724;51.094;6.996;2022-12-08T09:49:48;3.80;99.90
46976;DHT22;32724;51.094;6.996;2022-12-08T09:52:21;3.80;99.90
46976;DHT22;32724;51.094;6.996;2022-12-08T09:54:47;3.80;99.90
46976;DHT22;32724;51.094;6.996;2022-12-08T09:57:14;3.90;99.90
46976;DHT22;32724;51.094;6.996;2022-12-08T09:59:41;3.90;99.90
46976;DHT22;32724;51.094;6.996;2022-12-08T10:02:18;4.10;99.90
46976;DHT22;32724;51.094;6.996;2022-12-08T10:04:44;4.00;99.90
46976;DHT22;32724;51.094;6.996;2022-12-08T10:10:28;3.80;99.90
46976;DHT22;32724;51.094;6.996;2022-12-08T10:13:10;4.20;99.90
46976;DHT22;32724;51.094;6.996;2022-12-08T10:15:40;3.90;99.90
46976;DHT22;32724;51.094;6.996;2022-12-08T10:18:28;3.80;99.90
46976;DHT22;32724;51.094;6.996;2022-12-08T10:20:55;3.80;99.90
46976;DHT22;32724;51.094;6.996;2022-12-08T10:23:32;3.80;99.90
46976;DHT22;32724;51.094;6.996;2022-12-08T10:26:00;3.80;99.90
46976;DHT22;32724;51.094;6.996;2022-12-08T10:28:26;3.90;99.90
46976;DHT22;32724;51.094;6.996;2022-12-08T10:30:52;3.80;99.90
46976;DHT22;32724;51.094;6.996;2022-12-08T10:33:19;3.80;99.90
46976;DHT22;32724;51.094;6.996;2022-12-08T10:35:46;3.90;99.90
46976;DHT22;32724;51.094;6.996;2022-12-08T10:40:48;3.80;99.90
46976;DHT22;32724;51.094;6.996;2022-12-08T10:43:19;3.80;99.90
46976;DHT22;32724;51.094;6.996;2022-12-08T10:45:45;3.80;99.90
46976;DHT22;32724;51.094;6.996;2022-12-08T10:48:13;3.80;99.90
46976;DHT22;32724;51.094;6.996;2022-12-08T10:53:13;3.90;99.90
46976;DHT22;32724;51.094;6.996;2022-12-08T10:58:04;3.90;99.90
46976;DHT22;32724;51.094;6.996;2022-12-08T11:00:30;3.90;99.90
46976;DHT22;32724;51.094;6.996;2022-12-08T11:02:59;3.80;99.90
46976;DHT22;32724;51.094;6.996;2022-12-08T11:05:32;3.80;99.90
46976;DHT22;32724;51.094;6.996;2022-12-08T11:07:58;3.90;99.90
46976;DHT22;32724;51.094;6.996;2022-12-08T11:10:42;3.90;99.90
46976;DHT22;32724;51.094;6.996;2022-12-08T11:13:12;3.90;99.90
46976;DHT22;32724;51.094;6.996;2022-12-08T11:15:39;4.00;99.90
46976;DHT22;32724;51.094;6.996;2022-12-08T11:18:07;4.10;99.90
46976;DHT22;32724;51.094;6.996;2022-12-08T11:20:39;4.20;99.90
46976;DHT22;32724;51.094;6.996;2022-12-08T11:23:17;4.30;99.90
46976;DHT22;32724;51.094;6.996;2022-12-08T11:25:43;4.40;99.90
46976;DHT22;32724;51.094;6.996;2022-12-08T11:28:08;4.50;99.90
46976;DHT22;32724;51.094;6.996;2022-12-08T11:30:35;4.60;99.90
46976;DHT22;32724;51.094;6.996;2022-12-08T11:33:15;4.60;99.90
46976;DHT22;32724;51.094;6.996;2022-12-08T11:35:42;4.60;99.90
46976;DHT22;32724;51.094;6.996;2022-12-08T11:38:11;4.30;99.90
46976;DHT22;32724;51.094;6.996;2022-12-08T11:40:38;4.20;99.90
46976;DHT22;32724;51.094;6.996;2022-12-08T11:43:12;4.10;99.90
46976;DHT22;32724;51.094;6.996;2022-12-08T11:45:39;4.10;99.90
46976;DHT22;32724;51.094;6.996;2022-12-08T11:56:26;4.00;99.90
46976;DHT22;32724;51.094;6.996;2022-12-08T11:58:56;4.00;99.90
46976;DHT22;32724;51.094;6.996;2022-12-08T12:01:23;4.00;99.90
46976;DHT22;32724;51.094;6.996;2022-12-08T12:04:08;4.00;99.90
46976;DHT22;32724;51.094;6.996;2022-12-08T12:06:56;4.00;99.90
46976;DHT22;32724;51.094;6.996;2022-12-08T12:09:29;4.10;99.90
46976;DHT22;32724;51.094;6.996;2022-12-08T12:20:03;4.40;99.90
46976;DHT22;32724;51.094;6.996;2022-12-08T12:22:32;4.50;99.90
46976;DHT22;32724;51.094;6.996;2022-12-08T12:24:58;4.50;99.90
46976;DHT22;32724;51.094;6.996;2022-12-08T12:27:29;4.60;99.90
46976;DHT22;32724;51.094;6.996;2022-12-08T12:29:57;4.70;99.90
46976;DHT22;32724;51.094;6.996;2022-12-08T12:32:24;4.70;99.90
46976;DHT22;32724;51.094;6.996;2022-12-08T12:34:55;4.80;99.90
46976;DHT22;32724;51.094;6.996;2022-12-08T12:37:25;4.90;99.90
46976;DHT22;32724;51.094;6.996;2022-12-08T12:40:01;4.60;99.90
46976;DHT22;32724;51.094;6.996;2022-12-08T12:48:11;4.50;99.90
46976;DHT22;32724;51.094;6.996;2022-12-08T13:03:42;4.40;99.90
46976;DHT22;32724;51.094;6.996;2022-12-08T13:06:09;4.40;99.90
46976;DHT22;32724;51.094;6.996;2022-12-08T13:08:39;4.40;99.90
46976;DHT22;32724;51.094;6.996;2022-12-08T13:11:06;4.40;99.90
46976;DHT22;32724;51.094;6.996;2022-12-08T13:13:36;4.40;99.90
46976;DHT22;32724;51.094;6.996;2022-12-08T13:16:11;4.60;99.90
46976;DHT22;32724;51.094;6.996;2022-12-08T13:18:43;4.60;99.90
46976;DHT22;32724;51.094;6.996;2022-12-08T13:21:11;4.70;99.90
46976;DHT22;32724;51.094;6.996;2022-12-08T13:26:20;4.80;99.90
46976;DHT22;32724;51.094;6.996;2022-12-08T13:31:36;4.90;99.90
46976;DHT22;32724;51.094;6.996;2022-12-08T13:34:04;4.90;99.90
46976;DHT22;32724;51.094;6.996;2022-12-08T13:39:28;4.70;99.90
46976;DHT22;32724;51.094;6.996;2022-12-08T13:42:01;4.40;99.90
46976;DHT22;32724;51.094;6.996;2022-12-08T13:44:30;4.50;99.90
46976;DHT22;32724;51.094;6.996;2022-12-08T13:46:56;4.40;99.90
46976;DHT22;32724;51.094;6.996;2022-12-08T13:49:23;4.40;99.90
46976;DHT22;32724;51.094;6.996;2022-12-08T13:51:50;4.50;99.90
46976;DHT22;32724;51.094;6.996;2022-12-08T13:54:25;4.40;99.90
46976;DHT22;32724;51.094;6.996;2022-12-08T13:56:53;4.30;99.90
46976;DHT22;32724;51.094;6.996;2022-12-08T14:01:46;4.20;99.90
46976;DHT22;32724;51.094;6.996;2022-12-08T14:04:13;4.20;99.90
46976;DHT22;32724;51.094;6.996;2022-12-08T14:06:41;4.20;99.90
46976;DHT22;32724;51.094;6.996;2022-12-08T14:09:11;4.20;99.90
46976;DHT22;32724;51.094;6.996;2022-12-08T14:11:39;4.20;99.90
46976;DHT22;32724;51.094;6.996;2022-12-08T14:14:12;4.20;99.90
46976;DHT22;32724;51.094;6.996;2022-12-08T14:16:40;4.20;99.90
46976;DHT22;32724;51.094;6.996;2022-12-08T14:19:27;4.20;99.90
46976;DHT22;32724;51.094;6.996;2022-12-08T14:24:32;4.30;99.90
46976;DHT22;32724;51.094;6.996;2022-12-08T14:26:58;4.40;99.90
46976;DHT22;32724;51.094;6.996;2022-12-08T14:29:46;4.40;99.90
46976;DHT22;32724;51.094;6.996;2022-12-08T14:37:20;4.40;99.90
46976;DHT22;32724;51.094;6.996;2022-12-08T14:39:45;4.40;99.90
46976;DHT22;32724;51.094;6.996;2022-12-08T14:42:17;4.30;99.90
46976;DHT22;32724;51.094;6.996;2022-12-08T14:44:45;4.00;99.90
46976;DHT22;32724;51.094;6.996;2022-12-08T14:47:10;4.00;99.90
46976;DHT22;32724;51.094;6.996;2022-12-08T14:49:42;4.00;99.90
46976;DHT22;32724;51.094;6.996;2022-12-08T14:52:09;4.10;99.90
46976;DHT22;32724;51.094;6.996;2022-12-08T14:54:35;4.10;99.90
46976;DHT22;32724;51.094;6.996;2022-12-08T14:57:02;4.10;99.90
46976;DHT22;32724;51.094;6.996;2022-12-08T15:04:39;4.10;99.90
46976;DHT22;32724;51.094;6.996;2022-12-08T15:12:14;4.10;99.90
46976;DHT22;32724;51.094;6.996;2022-12-08T15:15:00;4.00;99.90
46976;DHT22;32724;51.094;6.996;2022-12-08T15:17:33;4.00;99.90
46976;DHT22;32724;51.094;6.996;2022-12-08T15:19:59;4.00;99.90
46976;DHT22;32724;51.094;6.996;2022-12-08T15:22:25;3.90;99.90
46976;DHT22;32724;51.094;6.996;2022-12-08T15:24:52;3.90;99.90
46976;DHT22;32724;51.094;6.996;2022-12-08T15:27:18;3.90;99.90
46976;DHT22;32724;51.094;6.996;2022-12-08T15:29:45;3.80;99.90
46976;DHT22;32724;51.094;6.996;2022-12-08T15:32:11;3.80;99.90
46976;DHT22;32724;51.094;6.996;2022-12-08T15:34:37;3.70;99.90
46976;DHT22;32724;51.094;6.996;2022-12-08T15:37:03;3.70;99.90
46976;DHT22;32724;51.094;6.996;2022-12-08T15:39:29;3.60;99.90
46976;DHT22;32724;51.094;6.996;2022-12-08T15:41:56;3.50;99.90
46976;DHT22;32724;51.094;6.996;2022-12-08T15:44:22;3.50;99.90
46976;DHT22;32724;51.094;6.996;2022-12-08T15:46:47;3.60;99.90
46976;DHT22;32724;51.094;6.996;2022-12-08T15:49:18;3.60;99.90
46976;DHT22;32724;51.094;6.996;2022-12-08T15:51:44;3.60;99.90
46976;DHT22;32724;51.094;6.996;2022-12-08T15:54:10;3.60;99.90
46976;DHT22;32724;51.094;6.996;2022-12-08T15:56:45;3.70;99.90
46976;DHT22;32724;51.094;6.996;2022-12-08T15:59:19;3.70;99.90
46976;DHT22;32724;51.094;6.996;2022-12-08T16:01:44;3.60;99.90
46976;DHT22;32724;51.094;6.996;2022-12-08T16:04:14;3.70;99.90
46976;DHT22;32724;51.094;6.996;2022-12-08T16:06:41;3.60;99.90
46976;DHT22;32724;51.094;6.996;2022-12-08T16:09:27;3.40;99.90
46976;DHT22;32724;51.094;6.996;2022-12-08T16:11:54;3.40;99.90
46976;DHT22;32724;51.094;6.996;2022-12-08T16:14:38;3.40;99.90
46976;DHT22;32724;51.094;6.996;2022-12-08T16:17:04;3.40;99.90
46976;DHT22;32724;51.094;6.996;2022-12-08T16:19:30;3.50;99.90
46976;DHT22;32724;51.094;6.996;2022-12-08T16:21:55;3.50;99.90
46976;DHT22;32724;51.094;6.996;2022-12-08T16:24:21;3.40;99.90
46976;DHT22;32724;51.094;6.996;2022-12-08T16:26:46;3.40;99.90
46976;DHT22;32724;51.094;6.996;2022-12-08T16:29:16;3.40;99.90
46976;DHT22;32724;51.094;6.996;2022-12-08T16:31:42;3.40;99.90
46976;DHT22;32724;51.094;6.996;2022-12-08T16:34:07;3.40;99.90
46976;DHT22;32724;51.094;6.996;2022-12-08T16:36:33;3.40;99.90
46976;DHT22;32724;51.094;6.996;2022-12-08T16:38:58;3.40;99.90
46976;DHT22;32724;51.094;6.996;2022-12-08T16:41:24;3.40;99.90
46976;DHT22;32724;51.094;6.996;2022-12-08T16:44:08;3.40;99.90
46976;DHT22;32724;51.094;6.996;2022-12-08T16:46:33;3.40;99.90
46976;DHT22;32724;51.094;6.996;2022-12-08T16:49:00;3.50;99.90
46976;DHT22;32724;51.094;6.996;2022-12-08T16:51:25;3.40;99.90
46976;DHT22;32724;51.094;6.996;2022-12-08T16:53:51;3.20;99.90
46976;DHT22;32724;51.094;6.996;2022-12-08T16:56:17;3.00;99.90
46976;DHT22;32724;51.094;6.996;2022-12-08T16:58:43;2.80;99.90
46976;DHT22;32724;51.094;6.996;2022-12-08T17:01:10;2.70;99.90
46976;DHT22;32724;51.094;6.996;2022-12-08T17:03:35;2.80;99.90
46976;DHT22;32724;51.094;6.996;2022-12-08T17:06:00;3.00;99.90
46976;DHT22;32724;51.094;6.996;2022-12-08T17:08:31;3.20;99.90
46976;DHT22;32724;51.094;6.996;2022-12-08T17:10:57;3.30;99.90
46976;DHT22;32724;51.094;6.996;2022-12-08T17:13:32;3.40;99.90
46976;DHT22;32724;51.094;6.996;2022-12-08T17:15:57;3.50;99.90
46976;DHT22;32724;51.094;6.996;2022-12-08T17:18:23;3.50;99.90
46976;DHT22;32724;51.094;6.996;2022-12-08T17:20:48;3.60;99.90
46976;DHT22;32724;51.094;6.996;2022-12-08T17:23:14;3.50;99.90
46976;DHT22;32724;51.094;6.996;2022-12-08T17:25:39;3.40;99.90
46976;DHT22;32724;51.094;6.996;2022-12-08T17:28:05;3.30;99.90
46976;DHT22;32724;51.094;6.996;2022-12-08T17:30:30;3.30;99.90
46976;DHT22;32724;51.094;6.996;2022-12-08T17:32:56;3.20;99.90
46976;DHT22;32724;51.094;6.996;2022-12-08T17:35:21;3.10;99.90
46976;DHT22;32724;51.094;6.996;2022-12-08T17:37:46;3.20;99.90
46976;DHT22;32724;51.094;6.996;2022-12-08T17:40:12;3.20;99.90
46976;DHT22;32724;51.094;6.996;2022-12-08T17:42:38;3.20;99.90
46976;DHT22;32724;51.094;6.996;2022-12-08T17:45:04;3.20;99.90